sensor_id;sensor_type;location;lat;lon;timestamp;pressure;altitude;pressure_sealevel;temperature;humidity
31239;BME280;17871;31.584;74.450;2023-04-24T00:01:18;98234.41;;;24.12;46.10
31239;BME280;17871;31.584;74.450;2023-04-24T00:03:49;98240.94;;;23.85;46.79
31239;BME280;17871;31.584;74.450;2023-04-24T00:06:21;98236.03;;;23.78;46.23
31239;BME280;17871;31.584;74.450;2023-04-24T00:08:54;98241.25;;;23.78;46.34
31239;BME280;17871;31.584;74.450;2023-04-24T00:11:25;98246.16;;;23.85;46.38
31239;BME280;17871;31.584;74.450;2023-04-24T00:13:57;98246.25;;;23.83;46.68
31239;BME280;17871;31.584;74.450;2023-04-24T00:16:29;98250.47;;;23.86;46.90
31239;BME280;17871;31.584;74.450;2023-04-24T00:18:59;98242.66;;;23.86;47.17
31239;BME280;17871;31.584;74.450;2023-04-24T00:21:31;98253.53;;;23.76;46.89
31239;BME280;17871;31.584;74.450;2023-04-24T00:24:04;98249.88;;;23.81;47.33
31239;BME280;17871;31.584;74.450;2023-04-24T00:26:36;98256.06;;;23.78;47.12
31239;BME280;17871;31.584;74.450;2023-04-24T00:29:38;98258.00;;;23.92;47.90
31239;BME280;17871;31.584;74.450;2023-04-24T00:32:10;98261.97;;;23.82;47.86
31239;BME280;17871;31.584;74.450;2023-04-24T00:34:41;98270.75;;;23.81;46.95
31239;BME280;17871;31.584;74.450;2023-04-24T00:37:13;98275.91;;;23.63;47.64
31239;BME280;17871;31.584;74.450;2023-04-24T00:39:45;98275.13;;;23.61;48.66
31239;BME280;17871;31.584;74.450;2023-04-24T00:42:16;98273.75;;;23.54;49.16
31239;BME280;17871;31.584;74.450;2023-04-24T00:44:48;98285.84;;;23.55;48.34
31239;BME280;17871;31.584;74.450;2023-04-24T00:47:20;98285.56;;;23.61;48.82
31239;BME280;17871;31.584;74.450;2023-04-24T00:49:51;98286.84;;;23.53;49.73
31239;BME280;17871;31.584;74.450;2023-04-24T00:52:23;98291.00;;;23.57;49.98
31239;BME280;17871;31.584;74.450;2023-04-24T00:54:54;98288.31;;;23.58;49.74
31239;BME280;17871;31.584;74.450;2023-04-24T00:57:26;98290.50;;;23.67;49.95
31239;BME280;17871;31.584;74.450;2023-04-24T00:59:58;98282.91;;;23.63;50.05
31239;BME280;17871;31.584;74.450;2023-04-24T01:02:29;98293.84;;;23.71;50.04
31239;BME280;17871;31.584;74.450;2023-04-24T01:05:01;98294.66;;;23.71;50.33
31239;BME280;17871;31.584;74.450;2023-04-24T01:07:34;98297.56;;;23.65;51.55
31239;BME280;17871;31.584;74.450;2023-04-24T01:10:08;98304.03;;;23.75;50.95
31239;BME280;17871;31.584;74.450;2023-04-24T01:12:40;98299.66;;;23.76;51.09
31239;BME280;17871;31.584;74.450;2023-04-24T01:15:12;98299.50;;;23.79;50.56
31239;BME280;17871;31.584;74.450;2023-04-24T01:17:43;98303.44;;;23.88;50.44
31239;BME280;17871;31.584;74.450;2023-04-24T01:20:15;98313.63;;;23.94;50.34
31239;BME280;17871;31.584;74.450;2023-04-24T01:22:48;98314.22;;;23.99;50.74
31239;BME280;17871;31.584;74.450;2023-04-24T01:25:23;98320.56;;;24.12;51.75
31239;BME280;17871;31.584;74.450;2023-04-24T01:27:57;98320.56;;;24.12;52.97
31239;BME280;17871;31.584;74.450;2023-04-24T01:30:29;98321.97;;;24.19;51.17
31239;BME280;17871;31.584;74.450;2023-04-24T01:33:01;98317.44;;;24.22;50.88
31239;BME280;17871;31.584;74.450;2023-04-24T01:35:34;98323.97;;;24.31;51.88
31239;BME280;17871;31.584;74.450;2023-04-24T01:38:07;98325.84;;;24.46;51.79
31239;BME280;17871;31.584;74.450;2023-04-24T01:40:38;98325.53;;;24.52;50.73
31239;BME280;17871;31.584;74.450;2023-04-24T01:43:09;98325.81;;;24.63;50.21
31239;BME280;17871;31.584;74.450;2023-04-24T01:45:42;98332.28;;;24.73;50.16
31239;BME280;17871;31.584;74.450;2023-04-24T01:48:15;98332.69;;;24.83;50.43
31239;BME280;17871;31.584;74.450;2023-04-24T01:50:47;98340.13;;;24.91;50.10
31239;BME280;17871;31.584;74.450;2023-04-24T01:53:18;98341.34;;;25.01;50.09
31239;BME280;17871;31.584;74.450;2023-04-24T01:55:48;98340.19;;;25.06;49.32
31239;BME280;17871;31.584;74.450;2023-04-24T01:58:20;98347.31;;;25.20;49.03
31239;BME280;17871;31.584;74.450;2023-04-24T02:00:52;98351.56;;;25.22;49.11
31239;BME280;17871;31.584;74.450;2023-04-24T02:03:23;98354.53;;;25.32;48.06
31239;BME280;17871;31.584;74.450;2023-04-24T02:05:55;98357.25;;;25.46;47.81
31239;BME280;17871;31.584;74.450;2023-04-24T02:08:27;98352.34;;;25.40;47.88
31239;BME280;17871;31.584;74.450;2023-04-24T02:10:58;98359.56;;;25.52;46.82
31239;BME280;17871;31.584;74.450;2023-04-24T02:13:30;98365.81;;;25.65;46.52
31239;BME280;17871;31.584;74.450;2023-04-24T02:16:02;98362.63;;;25.76;45.70
31239;BME280;17871;31.584;74.450;2023-04-24T02:18:33;98357.41;;;25.92;45.72
31239;BME280;17871;31.584;74.450;2023-04-24T02:21:04;98372.28;;;25.91;45.88
31239;BME280;17871;31.584;74.450;2023-04-24T02:23:39;98378.59;;;26.03;45.44
31239;BME280;17871;31.584;74.450;2023-04-24T02:26:13;98380.19;;;26.05;45.00
31239;BME280;17871;31.584;74.450;2023-04-24T02:28:44;98371.75;;;26.16;45.03
31239;BME280;17871;31.584;74.450;2023-04-24T02:31:16;98380.97;;;26.23;45.19
31239;BME280;17871;31.584;74.450;2023-04-24T02:33:48;98376.66;;;26.22;44.89
31239;BME280;17871;31.584;74.450;2023-04-24T02:36:19;98386.78;;;26.28;45.46
31239;BME280;17871;31.584;74.450;2023-04-24T02:38:50;98384.59;;;26.36;45.08
31239;BME280;17871;31.584;74.450;2023-04-24T02:41:19;98388.75;;;26.40;43.82
31239;BME280;17871;31.584;74.450;2023-04-24T02:43:48;98393.56;;;26.32;44.96
31239;BME280;17871;31.584;74.450;2023-04-24T02:46:18;98399.88;;;26.59;45.02
31239;BME280;17871;31.584;74.450;2023-04-24T02:48:47;98394.38;;;26.64;45.01
31239;BME280;17871;31.584;74.450;2023-04-24T02:51:16;98402.97;;;26.66;45.11
31239;BME280;17871;31.584;74.450;2023-04-24T02:53:45;98399.41;;;26.83;44.74
31239;BME280;17871;31.584;74.450;2023-04-24T02:56:14;98405.81;;;26.93;44.61
31239;BME280;17871;31.584;74.450;2023-04-24T02:58:43;98405.84;;;27.07;44.74
31239;BME280;17871;31.584;74.450;2023-04-24T03:01:12;98411.84;;;27.09;45.17
31239;BME280;17871;31.584;74.450;2023-04-24T03:03:42;98411.47;;;27.15;44.76
31239;BME280;17871;31.584;74.450;2023-04-24T03:06:11;98408.03;;;27.28;44.75
31239;BME280;17871;31.584;74.450;2023-04-24T03:08:40;98414.22;;;27.42;44.48
31239;BME280;17871;31.584;74.450;2023-04-24T03:11:14;98411.53;;;27.57;44.60
31239;BME280;17871;31.584;74.450;2023-04-24T03:13:42;98413.50;;;27.54;43.02
31239;BME280;17871;31.584;74.450;2023-04-24T03:16:12;98422.78;;;27.59;42.37
31239;BME280;17871;31.584;74.450;2023-04-24T03:18:41;98418.81;;;27.66;41.96
31239;BME280;17871;31.584;74.450;2023-04-24T03:21:12;98427.28;;;27.71;42.04
31239;BME280;17871;31.584;74.450;2023-04-24T03:23:42;98428.69;;;27.91;41.39
31239;BME280;17871;31.584;74.450;2023-04-24T03:26:11;98430.63;;;28.02;41.19
31239;BME280;17871;31.584;74.450;2023-04-24T03:28:51;98430.53;;;28.17;41.83
31239;BME280;17871;31.584;74.450;2023-04-24T03:31:20;98432.56;;;28.26;41.42
31239;BME280;17871;31.584;74.450;2023-04-24T03:33:50;98434.00;;;28.32;41.46
31239;BME280;17871;31.584;74.450;2023-04-24T03:36:19;98429.44;;;28.48;41.16
31239;BME280;17871;31.584;74.450;2023-04-24T03:38:49;98431.34;;;28.59;41.06
31239;BME280;17871;31.584;74.450;2023-04-24T03:41:31;98429.41;;;28.75;40.42
31239;BME280;17871;31.584;74.450;2023-04-24T03:44:14;98440.72;;;28.90;40.87
31239;BME280;17871;31.584;74.450;2023-04-24T03:46:43;98430.63;;;28.96;40.47
31239;BME280;17871;31.584;74.450;2023-04-24T03:49:13;98440.44;;;29.07;39.11
31239;BME280;17871;31.584;74.450;2023-04-24T03:51:44;98441.19;;;29.21;39.74
31239;BME280;17871;31.584;74.450;2023-04-24T03:54:25;98443.97;;;29.32;38.79
31239;BME280;17871;31.584;74.450;2023-04-24T03:56:54;98441.25;;;29.47;39.51
31239;BME280;17871;31.584;74.450;2023-04-24T03:59:25;98438.19;;;29.65;39.15
31239;BME280;17871;31.584;74.450;2023-04-24T04:02:11;98438.31;;;29.89;38.24
31239;BME280;17871;31.584;74.450;2023-04-24T04:04:41;98431.97;;;29.92;38.08
31239;BME280;17871;31.584;74.450;2023-04-24T04:07:11;98442.50;;;29.92;36.42
31239;BME280;17871;31.584;74.450;2023-04-24T04:09:41;98439.31;;;30.12;35.84
31239;BME280;17871;31.584;74.450;2023-04-24T04:12:11;98437.88;;;30.31;35.87
31239;BME280;17871;31.584;74.450;2023-04-24T04:14:42;98439.63;;;30.44;33.84
31239;BME280;17871;31.584;74.450;2023-04-24T04:17:11;98441.28;;;30.57;33.58
31239;BME280;17871;31.584;74.450;2023-04-24T04:19:42;98445.31;;;30.74;34.23
31239;BME280;17871;31.584;74.450;2023-04-24T04:22:11;98452.91;;;30.89;33.48
31239;BME280;17871;31.584;74.450;2023-04-24T04:24:44;98444.63;;;31.07;34.44
31239;BME280;17871;31.584;74.450;2023-04-24T04:27:15;98451.03;;;31.26;34.31
31239;BME280;17871;31.584;74.450;2023-04-24T04:29:53;98447.25;;;31.42;33.11
31239;BME280;17871;31.584;74.450;2023-04-24T04:32:22;98449.75;;;31.43;30.23
31239;BME280;17871;31.584;74.450;2023-04-24T04:34:52;98440.19;;;31.75;28.94
31239;BME280;17871;31.584;74.450;2023-04-24T04:37:23;98451.72;;;31.85;28.62
31239;BME280;17871;31.584;74.450;2023-04-24T04:40:12;98450.28;;;32.15;27.75
31239;BME280;17871;31.584;74.450;2023-04-24T04:42:56;98444.25;;;32.35;28.11
31239;BME280;17871;31.584;74.450;2023-04-24T04:45:29;98446.28;;;32.31;27.04
31239;BME280;17871;31.584;74.450;2023-04-24T04:48:28;98453.09;;;32.67;27.11
31239;BME280;17871;31.584;74.450;2023-04-24T04:51:02;98450.41;;;32.78;27.11
31239;BME280;17871;31.584;74.450;2023-04-24T04:53:31;98449.53;;;32.89;26.34
31239;BME280;17871;31.584;74.450;2023-04-24T04:56:00;98448.13;;;33.06;26.30
31239;BME280;17871;31.584;74.450;2023-04-24T04:58:35;98458.72;;;33.06;25.55
31239;BME280;17871;31.584;74.450;2023-04-24T05:01:08;98452.38;;;33.29;25.94
31239;BME280;17871;31.584;74.450;2023-04-24T05:03:41;98452.06;;;33.53;26.00
31239;BME280;17871;31.584;74.450;2023-04-24T05:06:13;98461.81;;;33.73;24.80
31239;BME280;17871;31.584;74.450;2023-04-24T05:08:43;98462.44;;;33.56;24.00
31239;BME280;17871;31.584;74.450;2023-04-24T05:11:41;98450.94;;;33.76;23.69
31239;BME280;17871;31.584;74.450;2023-04-24T05:14:11;98461.25;;;34.00;25.25
31239;BME280;17871;31.584;74.450;2023-04-24T05:16:42;98459.97;;;34.15;25.04
31239;BME280;17871;31.584;74.450;2023-04-24T05:19:13;98457.94;;;34.07;23.96
31239;BME280;17871;31.584;74.450;2023-04-24T05:21:45;98465.25;;;34.15;23.53
31239;BME280;17871;31.584;74.450;2023-04-24T05:24:14;98464.00;;;34.19;22.71
31239;BME280;17871;31.584;74.450;2023-04-24T05:26:43;98458.31;;;34.42;22.27
31239;BME280;17871;31.584;74.450;2023-04-24T05:29:15;98473.00;;;34.37;22.74
31239;BME280;17871;31.584;74.450;2023-04-24T05:31:45;98473.31;;;34.53;22.48
31239;BME280;17871;31.584;74.450;2023-04-24T05:34:14;98470.13;;;34.98;23.24
31239;BME280;17871;31.584;74.450;2023-04-24T05:36:49;98472.41;;;34.92;23.00
31239;BME280;17871;31.584;74.450;2023-04-24T05:39:20;98473.38;;;34.91;21.90
31239;BME280;17871;31.584;74.450;2023-04-24T05:41:49;98472.56;;;35.20;22.15
31239;BME280;17871;31.584;74.450;2023-04-24T05:44:18;98474.34;;;35.29;23.04
31239;BME280;17871;31.584;74.450;2023-04-24T05:46:47;98479.13;;;35.25;22.03
31239;BME280;17871;31.584;74.450;2023-04-24T05:49:17;98477.97;;;35.09;20.62
31239;BME280;17871;31.584;74.450;2023-04-24T05:51:47;98470.59;;;35.22;20.45
31239;BME280;17871;31.584;74.450;2023-04-24T05:54:17;98471.94;;;35.45;20.74
31239;BME280;17871;31.584;74.450;2023-04-24T05:56:46;98465.94;;;35.62;22.44
31239;BME280;17871;31.584;74.450;2023-04-24T05:59:24;98471.97;;;35.91;23.50
31239;BME280;17871;31.584;74.450;2023-04-24T06:01:53;98472.69;;;35.84;22.47
31239;BME280;17871;31.584;74.450;2023-04-24T06:04:23;98473.84;;;35.81;21.09
31239;BME280;17871;31.584;74.450;2023-04-24T06:06:53;98471.25;;;36.09;21.81
31239;BME280;17871;31.584;74.450;2023-04-24T06:09:25;98471.31;;;36.17;21.57
31239;BME280;17871;31.584;74.450;2023-04-24T06:11:54;98472.63;;;36.03;20.65
31239;BME280;17871;31.584;74.450;2023-04-24T06:14:31;98471.03;;;36.20;20.62
31239;BME280;17871;31.584;74.450;2023-04-24T06:17:16;98472.56;;;36.22;20.23
31239;BME280;17871;31.584;74.450;2023-04-24T06:19:46;98484.44;;;36.28;19.98
31239;BME280;17871;31.584;74.450;2023-04-24T06:22:16;98471.44;;;36.25;19.78
31239;BME280;17871;31.584;74.450;2023-04-24T06:24:45;98477.91;;;36.22;20.31
31239;BME280;17871;31.584;74.450;2023-04-24T06:27:17;98479.28;;;35.89;19.46
31239;BME280;17871;31.584;74.450;2023-04-24T06:29:46;98482.47;;;36.30;19.96
31239;BME280;17871;31.584;74.450;2023-04-24T06:32:24;98483.63;;;36.72;20.40
31239;BME280;17871;31.584;74.450;2023-04-24T06:34:53;98466.06;;;36.62;20.50
31239;BME280;17871;31.584;74.450;2023-04-24T06:37:25;98476.41;;;36.82;20.50
31239;BME280;17871;31.584;74.450;2023-04-24T06:39:55;98477.28;;;37.01;20.02
31239;BME280;17871;31.584;74.450;2023-04-24T06:42:24;98471.47;;;36.87;19.79
31239;BME280;17871;31.584;74.450;2023-04-24T06:44:53;98477.81;;;37.04;20.61
31239;BME280;17871;31.584;74.450;2023-04-24T06:47:22;98473.22;;;36.97;19.96
31239;BME280;17871;31.584;74.450;2023-04-24T06:49:52;98469.66;;;37.06;20.75
31239;BME280;17871;31.584;74.450;2023-04-24T06:52:22;98473.00;;;37.08;19.64
31239;BME280;17871;31.584;74.450;2023-04-24T06:54:51;98468.44;;;37.18;19.96
31239;BME280;17871;31.584;74.450;2023-04-24T06:57:20;98469.69;;;37.31;20.15
31239;BME280;17871;31.584;74.450;2023-04-24T06:59:49;98474.72;;;37.34;19.18
31239;BME280;17871;31.584;74.450;2023-04-24T07:02:19;98468.03;;;37.30;19.94
31239;BME280;17871;31.584;74.450;2023-04-24T07:04:48;98470.28;;;37.43;18.46
31239;BME280;17871;31.584;74.450;2023-04-24T07:07:17;98469.44;;;37.60;19.61
31239;BME280;17871;31.584;74.450;2023-04-24T07:09:47;98466.75;;;37.60;19.54
31239;BME280;17871;31.584;74.450;2023-04-24T07:12:16;98463.38;;;37.50;20.23
31239;BME280;17871;31.584;74.450;2023-04-24T07:14:48;98459.09;;;37.57;18.47
31239;BME280;17871;31.584;74.450;2023-04-24T07:17:18;98463.81;;;37.71;19.57
31239;BME280;17871;31.584;74.450;2023-04-24T07:19:47;98458.25;;;37.57;19.06
31239;BME280;17871;31.584;74.450;2023-04-24T07:22:16;98455.56;;;37.39;19.37
31239;BME280;17871;31.584;74.450;2023-04-24T07:24:45;98459.53;;;37.35;19.17
31239;BME280;17871;31.584;74.450;2023-04-24T07:27:14;98457.16;;;37.24;18.56
31239;BME280;17871;31.584;74.450;2023-04-24T07:29:43;98459.75;;;37.41;18.76
31239;BME280;17871;31.584;74.450;2023-04-24T07:32:13;98451.06;;;37.57;18.23
31239;BME280;17871;31.584;74.450;2023-04-24T07:34:42;98457.34;;;37.48;18.20
31239;BME280;17871;31.584;74.450;2023-04-24T07:37:12;98451.00;;;37.49;17.99
31239;BME280;17871;31.584;74.450;2023-04-24T07:39:41;98451.69;;;37.08;18.28
31239;BME280;17871;31.584;74.450;2023-04-24T07:42:10;98447.31;;;37.24;19.11
31239;BME280;17871;31.584;74.450;2023-04-24T07:44:39;98450.44;;;37.20;18.92
31239;BME280;17871;31.584;74.450;2023-04-24T07:47:08;98451.53;;;37.09;18.28
31239;BME280;17871;31.584;74.450;2023-04-24T07:49:38;98441.38;;;37.30;18.97
31239;BME280;17871;31.584;74.450;2023-04-24T07:52:08;98436.97;;;36.86;18.34
31239;BME280;17871;31.584;74.450;2023-04-24T07:54:36;98431.31;;;37.24;18.34
31239;BME280;17871;31.584;74.450;2023-04-24T07:57:05;98432.22;;;37.15;18.56
31239;BME280;17871;31.584;74.450;2023-04-24T07:59:36;98413.84;;;37.04;19.15
31239;BME280;17871;31.584;74.450;2023-04-24T08:02:06;98419.41;;;37.36;20.45
31239;BME280;17871;31.584;74.450;2023-04-24T08:04:37;98413.22;;;37.36;20.14
31239;BME280;17871;31.584;74.450;2023-04-24T08:07:08;98404.69;;;37.50;20.10
31239;BME280;17871;31.584;74.450;2023-04-24T08:09:37;98398.06;;;37.62;20.45
31239;BME280;17871;31.584;74.450;2023-04-24T08:12:06;98405.09;;;37.63;19.67
31239;BME280;17871;31.584;74.450;2023-04-24T08:14:35;98407.16;;;37.26;19.11
31239;BME280;17871;31.584;74.450;2023-04-24T08:17:04;98398.38;;;37.59;19.61
31239;BME280;17871;31.584;74.450;2023-04-24T08:19:34;98401.91;;;37.60;19.89
31239;BME280;17871;31.584;74.450;2023-04-24T08:22:03;98399.09;;;37.69;18.99
31239;BME280;17871;31.584;74.450;2023-04-24T08:24:33;98395.47;;;37.78;18.90
31239;BME280;17871;31.584;74.450;2023-04-24T08:27:02;98390.53;;;37.32;17.63
31239;BME280;17871;31.584;74.450;2023-04-24T08:29:31;98385.81;;;37.26;18.33
31239;BME280;17871;31.584;74.450;2023-04-24T08:32:01;98378.66;;;37.26;18.13
31239;BME280;17871;31.584;74.450;2023-04-24T08:34:30;98378.94;;;37.41;20.42
31239;BME280;17871;31.584;74.450;2023-04-24T08:36:59;98385.09;;;37.41;19.83
31239;BME280;17871;31.584;74.450;2023-04-24T08:39:28;98370.34;;;37.55;19.11
31239;BME280;17871;31.584;74.450;2023-04-24T08:41:57;98367.75;;;37.63;19.31
31239;BME280;17871;31.584;74.450;2023-04-24T08:44:34;98359.66;;;37.47;18.37
31239;BME280;17871;31.584;74.450;2023-04-24T08:47:04;98363.97;;;37.22;18.58
31239;BME280;17871;31.584;74.450;2023-04-24T08:49:36;98359.81;;;37.20;17.83
31239;BME280;17871;31.584;74.450;2023-04-24T08:52:06;98356.34;;;37.27;18.54
31239;BME280;17871;31.584;74.450;2023-04-24T08:54:35;98343.09;;;37.69;18.29
31239;BME280;17871;31.584;74.450;2023-04-24T08:57:08;98345.06;;;37.33;17.72
31239;BME280;17871;31.584;74.450;2023-04-24T08:59:40;98350.66;;;37.22;18.25
31239;BME280;17871;31.584;74.450;2023-04-24T09:02:12;98336.88;;;37.61;18.81
31239;BME280;17871;31.584;74.450;2023-04-24T09:04:43;98332.75;;;37.74;17.87
31239;BME280;17871;31.584;74.450;2023-04-24T09:07:14;98332.25;;;37.37;18.07
31239;BME280;17871;31.584;74.450;2023-04-24T09:09:45;98321.59;;;37.45;17.39
31239;BME280;17871;31.584;74.450;2023-04-24T09:12:14;98326.38;;;37.33;17.18
31239;BME280;17871;31.584;74.450;2023-04-24T09:14:44;98324.44;;;37.43;17.10
31239;BME280;17871;31.584;74.450;2023-04-24T09:17:14;98321.22;;;36.88;18.50
31239;BME280;17871;31.584;74.450;2023-04-24T09:19:43;98306.41;;;37.04;18.81
31239;BME280;17871;31.584;74.450;2023-04-24T09:22:12;98314.00;;;37.24;19.04
31239;BME280;17871;31.584;74.450;2023-04-24T09:24:42;98298.00;;;37.50;17.96
31239;BME280;17871;31.584;74.450;2023-04-24T09:27:12;98307.13;;;37.14;18.20
31239;BME280;17871;31.584;74.450;2023-04-24T09:29:54;98302.84;;;37.29;19.12
31239;BME280;17871;31.584;74.450;2023-04-24T09:32:24;98298.06;;;37.07;18.45
31239;BME280;17871;31.584;74.450;2023-04-24T09:35:11;98302.44;;;37.08;17.66
31239;BME280;17871;31.584;74.450;2023-04-24T09:37:44;98297.72;;;37.02;17.92
31239;BME280;17871;31.584;74.450;2023-04-24T09:40:17;98290.09;;;37.07;17.33
31239;BME280;17871;31.584;74.450;2023-04-24T09:42:55;98284.13;;;37.13;17.65
31239;BME280;17871;31.584;74.450;2023-04-24T09:45:37;98276.25;;;37.37;17.71
31239;BME280;17871;31.584;74.450;2023-04-24T09:48:09;98275.59;;;37.09;18.54
31239;BME280;17871;31.584;74.450;2023-04-24T09:50:39;98268.66;;;36.99;18.96
31239;BME280;17871;31.584;74.450;2023-04-24T09:53:08;98267.69;;;37.00;18.25
31239;BME280;17871;31.584;74.450;2023-04-24T09:55:42;98265.50;;;36.95;20.48
31239;BME280;17871;31.584;74.450;2023-04-24T09:58:14;98262.69;;;36.97;18.82
31239;BME280;17871;31.584;74.450;2023-04-24T10:00:45;98260.97;;;36.87;18.79
31239;BME280;17871;31.584;74.450;2023-04-24T10:03:17;98254.00;;;36.69;18.48
31239;BME280;17871;31.584;74.450;2023-04-24T10:05:47;98253.09;;;36.78;19.18
31239;BME280;17871;31.584;74.450;2023-04-24T10:08:16;98256.84;;;36.67;18.85
31239;BME280;17871;31.584;74.450;2023-04-24T10:10:46;98249.94;;;36.82;19.71
31239;BME280;17871;31.584;74.450;2023-04-24T10:13:15;98240.97;;;36.58;18.99
31239;BME280;17871;31.584;74.450;2023-04-24T10:15:44;98242.66;;;36.23;18.20
31239;BME280;17871;31.584;74.450;2023-04-24T10:18:17;98236.16;;;36.61;20.34
31239;BME280;17871;31.584;74.450;2023-04-24T10:20:47;98236.06;;;36.53;19.30
31239;BME280;17871;31.584;74.450;2023-04-24T10:23:16;98226.81;;;36.57;19.15
31239;BME280;17871;31.584;74.450;2023-04-24T10:25:48;98228.47;;;36.58;19.48
31239;BME280;17871;31.584;74.450;2023-04-24T10:28:19;98228.25;;;36.34;18.34
31239;BME280;17871;31.584;74.450;2023-04-24T10:30:49;98224.81;;;36.59;19.05
31239;BME280;17871;31.584;74.450;2023-04-24T10:33:19;98222.50;;;36.38;20.08
31239;BME280;17871;31.584;74.450;2023-04-24T10:35:50;98222.06;;;36.51;19.45
31239;BME280;17871;31.584;74.450;2023-04-24T10:38:24;98225.28;;;36.55;19.62
31239;BME280;17871;31.584;74.450;2023-04-24T10:41:11;98225.28;;;36.55;18.98
31239;BME280;17871;31.584;74.450;2023-04-24T10:43:48;98215.25;;;36.49;19.09
31239;BME280;17871;31.584;74.450;2023-04-24T10:46:22;98219.09;;;36.28;18.70
31239;BME280;17871;31.584;74.450;2023-04-24T10:48:54;98219.41;;;36.51;18.81
31239;BME280;17871;31.584;74.450;2023-04-24T10:51:26;98218.25;;;36.28;18.74
31239;BME280;17871;31.584;74.450;2023-04-24T10:54:33;98207.06;;;36.50;18.89
31239;BME280;17871;31.584;74.450;2023-04-24T11:00:16;98209.16;;;36.56;19.38
31239;BME280;17871;31.584;74.450;2023-04-24T11:02:47;98196.72;;;36.39;19.11
31239;BME280;17871;31.584;74.450;2023-04-24T11:05:19;98199.41;;;36.47;20.12
31239;BME280;17871;31.584;74.450;2023-04-24T11:08:11;98200.16;;;36.57;19.41
31239;BME280;17871;31.584;74.450;2023-04-24T11:10:46;98208.97;;;36.32;18.93
31239;BME280;17871;31.584;74.450;2023-04-24T11:13:21;98204.47;;;36.32;19.36
31239;BME280;17871;31.584;74.450;2023-04-24T11:16:13;98200.31;;;36.56;18.78
31239;BME280;17871;31.584;74.450;2023-04-24T11:18:43;98198.63;;;36.29;19.02
31239;BME280;17871;31.584;74.450;2023-04-24T11:21:20;98191.00;;;36.34;18.68
31239;BME280;17871;31.584;74.450;2023-04-24T11:23:49;98198.41;;;36.48;18.97
31239;BME280;17871;31.584;74.450;2023-04-24T11:26:22;98200.28;;;36.30;18.61
31239;BME280;17871;31.584;74.450;2023-04-24T11:29:08;98197.81;;;36.54;18.45
31239;BME280;17871;31.584;74.450;2023-04-24T11:31:39;98185.16;;;36.56;20.00
31239;BME280;17871;31.584;74.450;2023-04-24T11:34:10;98191.19;;;36.58;20.64
31239;BME280;17871;31.584;74.450;2023-04-24T11:36:40;98191.50;;;36.55;19.48
31239;BME280;17871;31.584;74.450;2023-04-24T11:39:09;98190.25;;;36.50;19.42
31239;BME280;17871;31.584;74.450;2023-04-24T11:41:39;98179.22;;;36.62;19.82
31239;BME280;17871;31.584;74.450;2023-04-24T11:44:09;98186.41;;;36.44;19.25
31239;BME280;17871;31.584;74.450;2023-04-24T11:46:40;98190.75;;;36.45;22.98
31239;BME280;17871;31.584;74.450;2023-04-24T11:49:09;98180.13;;;36.53;20.33
31239;BME280;17871;31.584;74.450;2023-04-24T11:51:38;98185.16;;;36.56;21.18
31239;BME280;17871;31.584;74.450;2023-04-24T11:54:20;98188.53;;;36.58;21.59
31239;BME280;17871;31.584;74.450;2023-04-24T11:56:49;98186.84;;;36.57;21.29
31239;BME280;17871;31.584;74.450;2023-04-24T11:59:19;98184.09;;;36.49;21.09
31239;BME280;17871;31.584;74.450;2023-04-24T12:01:48;98175.81;;;36.52;20.96
31239;BME280;17871;31.584;74.450;2023-04-24T12:04:18;98181.16;;;36.52;21.67
31239;BME280;17871;31.584;74.450;2023-04-24T12:09:43;98183.09;;;36.50;20.15
31239;BME280;17871;31.584;74.450;2023-04-24T12:12:16;98183.06;;;36.42;20.75
31239;BME280;17871;31.584;74.450;2023-04-24T12:15:09;98182.03;;;36.35;21.28
31239;BME280;17871;31.584;74.450;2023-04-24T12:17:41;98189.41;;;36.23;21.70
31239;BME280;17871;31.584;74.450;2023-04-24T12:20:12;98182.38;;;36.14;22.01
31239;BME280;17871;31.584;74.450;2023-04-24T12:25:18;98185.19;;;35.95;21.27
31239;BME280;17871;31.584;74.450;2023-04-24T12:28:08;98190.63;;;35.93;21.05
31239;BME280;17871;31.584;74.450;2023-04-24T12:30:41;98184.19;;;35.78;21.17
31239;BME280;17871;31.584;74.450;2023-04-24T12:33:20;98191.78;;;35.73;21.62
31239;BME280;17871;31.584;74.450;2023-04-24T12:35:53;98184.28;;;35.69;21.40
31239;BME280;17871;31.584;74.450;2023-04-24T12:38:26;98195.56;;;35.53;22.03
31239;BME280;17871;31.584;74.450;2023-04-24T12:41:11;98184.63;;;35.56;22.87
31239;BME280;17871;31.584;74.450;2023-04-24T12:43:53;98193.41;;;35.39;22.29
31239;BME280;17871;31.584;74.450;2023-04-24T12:46:24;98178.53;;;35.19;22.29
31239;BME280;17871;31.584;74.450;2023-04-24T12:48:53;98181.94;;;35.11;22.40
31239;BME280;17871;31.584;74.450;2023-04-24T12:51:23;98181.22;;;35.09;22.10
31239;BME280;17871;31.584;74.450;2023-04-24T12:53:52;98181.66;;;35.05;21.87
31239;BME280;17871;31.584;74.450;2023-04-24T12:56:23;98185.38;;;34.84;22.21
31239;BME280;17871;31.584;74.450;2023-04-24T12:58:52;98178.66;;;34.90;21.78
31239;BME280;17871;31.584;74.450;2023-04-24T13:01:21;98185.53;;;34.83;21.68
31239;BME280;17871;31.584;74.450;2023-04-24T13:03:51;98183.06;;;34.72;22.50
31239;BME280;17871;31.584;74.450;2023-04-24T13:06:20;98179.84;;;34.68;22.14
31239;BME280;17871;31.584;74.450;2023-04-24T13:08:49;98188.13;;;34.65;22.81
31239;BME280;17871;31.584;74.450;2023-04-24T13:11:20;98188.41;;;34.62;22.21
31239;BME280;17871;31.584;74.450;2023-04-24T13:13:50;98195.13;;;34.47;22.80
31239;BME280;17871;31.584;74.450;2023-04-24T13:16:21;98197.63;;;34.49;22.93
31239;BME280;17871;31.584;74.450;2023-04-24T13:18:52;98199.19;;;34.41;22.69
31239;BME280;17871;31.584;74.450;2023-04-24T13:21:21;98202.00;;;34.40;22.39
31239;BME280;17871;31.584;74.450;2023-04-24T13:23:50;98204.66;;;34.30;23.23